createdAt,value
2022-12-22T00:00:16.355Z,99808.16
2022-12-22T00:03:01.128Z,99791.03
2022-12-22T00:05:46.255Z,99798.56
2022-12-22T00:08:30.887Z,99783.88
2022-12-22T00:11:16.210Z,99795.59
2022-12-22T00:14:03.726Z,99795.50
2022-12-22T00:16:54.177Z,99778.31
2022-12-22T00:19:39.913Z,99796.22
2022-12-22T00:22:38.612Z,99780.13
2022-12-22T00:25:24.300Z,99774.03
2022-12-22T00:28:09.504Z,99768.84
2022-12-22T00:30:55.270Z,99757.47
2022-12-22T00:33:40.444Z,99743.81
2022-12-22T00:36:29.988Z,99781.13
2022-12-22T00:39:15.299Z,99755.44
2022-12-22T00:42:00.561Z,99775.69
2022-12-22T00:44:45.425Z,99758.72
2022-12-22T00:47:45.333Z,99774.59
2022-12-22T00:50:30.999Z,99735.22
2022-12-22T00:53:17.175Z,99746.00
2022-12-22T00:56:02.538Z,99730.06
2022-12-22T00:58:47.799Z,99739.25
2022-12-22T01:01:32.679Z,99725.09
2022-12-22T01:04:17.829Z,99719.25
2022-12-22T01:07:02.566Z,99712.88
2022-12-22T01:09:47.978Z,99733.41
2022-12-22T01:12:43.993Z,99724.16
2022-12-22T01:15:32.691Z,99718.84
2022-12-22T01:18:17.463Z,99696.72
2022-12-22T01:21:02.210Z,99711.84
2022-12-22T01:23:46.939Z,99694.09
2022-12-22T01:26:32.110Z,99711.75
2022-12-22T01:29:16.956Z,99689.22
2022-12-22T01:32:02.689Z,99677.25
2022-12-22T01:34:47.514Z,99692.84
2022-12-22T01:37:32.209Z,99667.25
2022-12-22T01:40:17.340Z,99686.13
2022-12-22T01:43:02.077Z,99670.56
2022-12-22T01:45:51.774Z,99661.31
2022-12-22T01:48:39.594Z,99634.75
2022-12-22T01:51:29.951Z,99675.69
2022-12-22T01:54:16.260Z,99653.88
2022-12-22T01:57:02.914Z,99653.03
2022-12-22T01:59:47.724Z,99640.25
2022-12-22T02:02:34.096Z,99642.56
2022-12-22T02:05:22.816Z,99633.81
2022-12-22T02:08:15.124Z,99653.41
2022-12-22T02:11:08.860Z,99636.75
2022-12-22T02:14:06.690Z,99638.44
2022-12-22T02:17:03.525Z,99631.25
2022-12-22T02:20:18.287Z,99617.25
2022-12-22T02:23:19.633Z,99608.34
2022-12-22T02:26:13.342Z,99604.03
2022-12-22T02:28:58.636Z,99576.38
2022-12-22T02:31:44.456Z,99573.66
2022-12-22T02:34:33.670Z,99585.81
2022-12-22T02:37:41.788Z,99594.22
2022-12-22T02:40:41.180Z,99576.78
2022-12-22T02:43:52.007Z,99559.66
2022-12-22T02:46:43.126Z,99570.44
2022-12-22T02:49:35.648Z,99570.56
2022-12-22T02:52:38.313Z,99547.59
2022-12-22T02:55:24.595Z,99548.00
2022-12-22T02:58:10.290Z,99547.88
2022-12-22T03:00:56.628Z,99547.94
2022-12-22T03:03:42.107Z,99547.88
2022-12-22T03:06:27.172Z,99545.13
2022-12-22T03:09:11.832Z,99545.19
2022-12-22T03:11:56.525Z,99548.38
2022-12-22T03:14:41.193Z,99520.25
2022-12-22T03:17:26.121Z,99545.78
2022-12-22T03:20:10.857Z,99525.13
2022-12-22T03:22:55.505Z,99538.72
2022-12-22T03:25:40.336Z,99530.19
2022-12-22T03:28:08.630Z,99536.22
2022-12-22T03:30:35.537Z,99497.75
2022-12-22T03:33:01.991Z,99497.75
2022-12-22T03:35:28.412Z,99508.19
2022-12-22T03:37:54.850Z,99505.50
2022-12-22T03:40:21.176Z,99503.69
2022-12-22T03:43:06.085Z,99487.88
2022-12-22T03:45:58.264Z,99477.53
2022-12-22T03:48:24.670Z,99507.22
2022-12-22T03:50:51.104Z,99467.09
2022-12-22T03:53:17.445Z,99479.66
2022-12-22T03:55:43.777Z,99464.41
2022-12-22T03:58:10.115Z,99389.66
2022-12-22T04:00:36.445Z,99473.91
2022-12-22T04:03:03.011Z,99448.25
2022-12-22T04:05:29.468Z,99473.78
2022-12-22T04:07:55.882Z,99461.84
2022-12-22T04:10:40.919Z,99472.06
2022-12-22T04:13:07.275Z,99470.38
2022-12-22T04:15:33.601Z,99363.91
2022-12-22T04:18:00.348Z,99478.63
2022-12-22T04:20:27.791Z,99466.72
2022-12-22T04:22:55.614Z,99442.75
2022-12-22T04:25:23.121Z,99482.16
2022-12-22T04:27:49.509Z,99459.13
2022-12-22T04:30:16.270Z,99446.28
2022-12-22T04:32:42.663Z,99434.50
2022-12-22T04:35:10.151Z,99455.84
2022-12-22T04:37:36.722Z,99465.00
2022-12-22T04:40:04.510Z,99436.09
2022-12-22T04:42:30.890Z,99437.81
2022-12-22T04:44:57.232Z,99431.34
2022-12-22T04:47:23.877Z,99435.69
2022-12-22T04:49:50.213Z,99448.50
2022-12-22T04:52:16.597Z,99442.38
2022-12-22T04:54:42.935Z,99459.91
2022-12-22T04:57:09.267Z,99436.59
2022-12-22T04:59:35.694Z,99397.63
2022-12-22T05:02:02.154Z,99451.25
2022-12-22T05:04:28.733Z,99425.75
2022-12-22T05:06:55.073Z,99411.72
2022-12-22T05:09:21.427Z,99450.88
2022-12-22T05:11:47.804Z,99373.28
2022-12-22T05:14:14.353Z,99435.34
2022-12-22T05:16:40.827Z,99428.19
2022-12-22T05:19:07.421Z,99431.81
2022-12-22T05:21:34.149Z,99400.47
2022-12-22T05:24:00.618Z,99470.50
2022-12-22T05:26:27.156Z,99463.44
2022-12-22T05:28:53.633Z,99388.94
2022-12-22T05:31:22.830Z,99396.47
2022-12-22T05:33:50.770Z,99378.75
2022-12-22T05:36:17.405Z,99422.84
2022-12-22T05:38:47.014Z,99435.00
2022-12-22T05:41:14.259Z,99437.31
2022-12-22T05:43:40.850Z,99466.03
2022-12-22T05:46:11.615Z,99461.59
2022-12-22T05:48:39.889Z,99465.25
2022-12-22T05:51:08.809Z,99417.50
2022-12-22T05:53:35.810Z,99465.38
2022-12-22T05:56:02.572Z,99386.22
2022-12-22T05:58:29.007Z,99462.25
2022-12-22T06:01:00.105Z,99448.75
2022-12-22T06:03:27.814Z,99464.91
2022-12-22T06:05:54.725Z,99472.31
2022-12-22T06:08:21.834Z,99473.06
2022-12-22T06:10:48.367Z,99454.47
2022-12-22T06:13:14.796Z,99444.00
2022-12-22T06:15:41.225Z,99422.81
2022-12-22T06:18:07.668Z,99391.59
2022-12-22T06:20:34.018Z,99409.97
2022-12-22T06:23:00.580Z,99455.91
2022-12-22T06:25:26.913Z,99466.25
2022-12-22T06:27:53.233Z,99471.97
2022-12-22T06:30:19.694Z,99487.06
2022-12-22T06:32:46.072Z,99500.94
2022-12-22T06:35:12.550Z,99502.28
2022-12-22T06:37:38.924Z,99493.75
2022-12-22T06:40:08.406Z,99452.16
2022-12-22T06:42:53.183Z,99519.66
2022-12-22T06:45:19.534Z,99505.91
2022-12-22T06:47:45.921Z,99490.81
2022-12-22T06:50:12.344Z,99524.13
2022-12-22T06:52:39.609Z,99502.16
2022-12-22T06:55:06.420Z,99533.28
2022-12-22T06:57:32.720Z,99534.94
2022-12-22T06:59:59.056Z,99519.72
2022-12-22T07:02:25.929Z,99543.97
2022-12-22T07:04:52.485Z,99514.28
2022-12-22T07:07:18.934Z,99565.41
2022-12-22T07:09:45.296Z,99553.13
2022-12-22T07:12:13.603Z,99587.28
2022-12-22T07:14:40.064Z,99562.28
2022-12-22T07:17:06.459Z,99596.00
2022-12-22T07:19:32.838Z,99599.78
2022-12-22T07:21:59.164Z,99585.94
2022-12-22T07:24:26.664Z,99595.34
2022-12-22T07:26:53.176Z,99567.03
2022-12-22T07:29:19.594Z,99542.78
2022-12-22T07:31:46.462Z,99621.03
2022-12-22T07:34:13.277Z,99583.28
2022-12-22T07:36:39.765Z,99590.00
2022-12-22T07:39:06.198Z,99616.88
2022-12-22T07:41:51.250Z,99623.72
2022-12-22T07:44:17.732Z,99625.19
2022-12-22T07:46:44.239Z,99603.50
2022-12-22T07:49:30.619Z,99656.59
2022-12-22T07:51:57.935Z,99658.53
2022-12-22T07:54:25.087Z,99666.31
2022-12-22T07:56:51.901Z,99680.09
2022-12-22T07:59:18.450Z,99632.25
2022-12-22T08:01:45.721Z,99692.28
2022-12-22T08:04:14.030Z,99703.53
2022-12-22T08:06:41.016Z,99692.84
2022-12-22T08:09:08.809Z,99706.53
2022-12-22T08:11:35.490Z,99715.69
2022-12-22T08:14:02.333Z,99651.34
2022-12-22T08:16:29.056Z,99731.53
2022-12-22T08:18:55.989Z,99723.13
2022-12-22T08:21:22.854Z,99659.09
2022-12-22T08:23:49.283Z,99674.19
2022-12-22T08:26:18.308Z,99727.59
2022-12-22T08:28:54.128Z,99746.13
2022-12-22T08:31:22.631Z,99664.88
2022-12-22T08:33:49.156Z,99694.56
2022-12-22T08:36:16.258Z,99759.13
2022-12-22T08:38:42.937Z,99773.41
2022-12-22T08:41:12.230Z,99735.06
2022-12-22T08:43:38.591Z,99755.50
2022-12-22T08:46:05.306Z,99787.00
2022-12-22T08:48:31.673Z,99781.72
2022-12-22T08:50:58.128Z,99767.44
2022-12-22T08:54:02.556Z,99786.59
2022-12-22T08:56:10.774Z,99798.34
2022-12-22T08:58:37.077Z,99798.44
2022-12-22T09:01:03.518Z,99821.78
2022-12-22T09:03:29.925Z,99767.00
2022-12-22T09:06:03.306Z,99824.78
2022-12-22T09:08:29.636Z,99818.13
2022-12-22T09:10:55.968Z,99818.34
2022-12-22T09:13:22.444Z,99797.44
2022-12-22T09:15:48.797Z,99832.38
2022-12-22T09:18:15.098Z,99772.84
2022-12-22T09:20:41.427Z,99811.31
2022-12-22T09:23:07.804Z,99846.22
2022-12-22T09:25:34.608Z,99848.03
2022-12-22T09:28:00.948Z,99854.03
2022-12-22T09:30:27.278Z,99848.56
2022-12-22T09:32:54.726Z,99858.84
2022-12-22T09:35:21.032Z,99877.97
2022-12-22T09:37:48.987Z,99900.47
2022-12-22T09:40:15.497Z,99896.03
2022-12-22T09:42:41.951Z,99885.00
2022-12-22T09:45:19.943Z,99918.25
2022-12-22T09:47:53.602Z,99866.84
2022-12-22T09:50:24.015Z,99895.16
2022-12-22T09:53:00.439Z,99881.28
2022-12-22T09:55:40.739Z,99926.03
2022-12-22T09:58:18.338Z,99928.63
2022-12-22T10:00:55.702Z,99938.41
2022-12-22T10:03:33.296Z,99922.06
2022-12-22T10:06:10.118Z,99929.13
2022-12-22T10:08:40.615Z,99923.69
2022-12-22T10:11:12.344Z,99954.44
2022-12-22T10:13:38.693Z,99940.47
2022-12-22T10:16:23.476Z,99944.66
2022-12-22T10:18:59.196Z,99967.31
2022-12-22T10:21:26.441Z,99954.16
2022-12-22T10:23:53.172Z,99952.91
2022-12-22T10:26:31.411Z,99957.16
2022-12-22T10:29:15.389Z,99918.53
2022-12-22T10:32:12.779Z,99955.19
2022-12-22T10:34:59.509Z,99967.88
2022-12-22T10:37:34.852Z,99983.97
2022-12-22T10:40:19.502Z,99964.69
2022-12-22T10:42:47.434Z,99993.72
2022-12-22T10:45:23.301Z,99985.53
2022-12-22T10:47:52.929Z,99954.97
2022-12-22T10:50:20.789Z,99953.47
2022-12-22T10:52:57.383Z,99990.28
2022-12-22T10:55:26.912Z,99927.22
2022-12-22T10:58:14.500Z,99966.66
2022-12-22T11:00:41.561Z,99994.03
2022-12-22T11:03:11.917Z,99998.78
2022-12-22T11:05:38.649Z,99929.84
2022-12-22T11:08:19.227Z,99990.56
2022-12-22T11:11:04.067Z,100019.38
2022-12-22T11:13:48.914Z,100012.66
2022-12-22T11:16:15.191Z,100015.47
2022-12-22T11:18:51.912Z,100015.78
2022-12-22T11:21:34.903Z,100025.88
2022-12-22T11:24:15.130Z,100025.34
2022-12-22T11:27:27.797Z,100029.19
2022-12-22T11:30:20.351Z,100025.88
2022-12-22T11:32:49.774Z,100037.13
2022-12-22T11:35:34.960Z,100025.03
2022-12-22T11:38:22.775Z,100007.50
2022-12-22T11:40:59.558Z,100003.06
2022-12-22T11:43:34.665Z,100034.91
2022-12-22T11:46:13.145Z,100043.66
2022-12-22T11:49:13.371Z,100009.38
2022-12-22T11:51:58.056Z,100025.84
2022-12-22T11:54:33.472Z,100045.59
2022-12-22T11:57:13.271Z,100012.34
2022-12-22T12:00:01.083Z,100038.69
2022-12-22T12:02:45.900Z,100043.09
2022-12-22T12:05:28.915Z,100033.81
2022-12-22T12:08:05.808Z,100022.53
2022-12-22T12:10:42.399Z,100039.72
2022-12-22T12:13:44.303Z,100046.78
2022-12-22T12:16:25.926Z,100051.97
2022-12-22T12:19:23.161Z,100019.56
2022-12-22T12:21:56.369Z,100031.00
2022-12-22T12:24:47.759Z,99995.34
2022-12-22T12:27:45.869Z,100026.84
2022-12-22T12:33:17.469Z,100028.66
2022-12-22T12:36:11.774Z,100042.88
2022-12-22T12:39:08.748Z,100035.19
2022-12-22T12:42:00.324Z,100032.59
2022-12-22T12:44:31.314Z,100023.31
2022-12-22T12:47:43.342Z,100012.25
2022-12-22T12:50:33.068Z,100037.56
2022-12-22T12:53:03.932Z,100031.41
2022-12-22T12:55:32.703Z,100025.94
2022-12-22T12:58:04.175Z,100029.63
2022-12-22T13:00:33.865Z,100030.31
2022-12-22T13:03:02.884Z,100007.25
2022-12-22T13:05:48.349Z,99969.72
2022-12-22T13:08:17.833Z,99994.34
2022-12-22T13:10:53.287Z,100022.13
2022-12-22T13:13:22.617Z,100018.50
2022-12-22T13:16:07.323Z,100026.09
2022-12-22T13:18:33.732Z,100022.31
2022-12-22T13:21:50.836Z,100017.13
2022-12-22T13:24:22.810Z,100017.22
2022-12-22T13:26:43.685Z,99992.63
2022-12-22T13:29:19.649Z,99980.25
2022-12-22T13:31:48.737Z,100023.69
2022-12-22T13:35:20.072Z,100031.03
2022-12-22T13:37:40.400Z,99970.75
2022-12-22T13:40:09.873Z,100043.72
2022-12-22T13:42:40.135Z,100006.75
2022-12-22T13:45:17.205Z,100034.09
2022-12-22T13:47:45.336Z,100053.97
2022-12-22T13:50:28.131Z,100045.41
2022-12-22T13:52:56.414Z,100024.50
2022-12-22T13:55:29.571Z,100026.75
2022-12-22T13:58:04.039Z,100016.31
2022-12-22T14:00:30.588Z,100006.41
2022-12-22T14:02:57.170Z,100029.09
2022-12-22T14:05:30.842Z,99978.59
2022-12-22T14:08:06.362Z,100044.59
2022-12-22T14:10:38.470Z,100032.72
2022-12-22T14:13:11.823Z,100000.25
2022-12-22T14:15:38.214Z,99986.66
2022-12-22T14:18:04.702Z,99981.34
2022-12-22T14:20:36.326Z,100022.66
2022-12-22T14:23:08.295Z,100013.47
2022-12-22T14:25:39.437Z,100015.28
2022-12-22T14:28:14.902Z,100007.44
2022-12-22T14:30:45.041Z,99990.91
2022-12-22T14:33:32.556Z,99988.78
2022-12-22T14:36:21.636Z,99997.94
2022-12-22T14:38:56.104Z,99961.69
2022-12-22T14:41:42.876Z,99959.66
2022-12-22T14:44:19.299Z,99962.47
2022-12-22T14:47:00.632Z,99948.66
2022-12-22T14:49:27.625Z,99962.56
2022-12-22T14:52:03.180Z,99952.19
2022-12-22T14:54:29.704Z,99960.66
2022-12-22T14:57:15.315Z,99962.28
2022-12-22T14:59:58.511Z,99953.69
2022-12-22T15:02:39.636Z,99953.69
2022-12-22T15:05:25.046Z,99950.28
2022-12-22T15:08:05.480Z,99963.81
2022-12-22T15:10:51.483Z,99849.31
2022-12-22T15:13:24.522Z,99965.22
2022-12-22T15:15:52.028Z,99958.34
2022-12-22T15:18:24.172Z,99953.84
2022-12-22T15:20:50.529Z,99927.09
2022-12-22T15:23:17.440Z,99918.03
2022-12-22T15:25:44.479Z,99947.06
2022-12-22T15:28:10.937Z,99903.53
2022-12-22T15:30:38.044Z,99916.22
2022-12-22T15:33:06.330Z,99942.59
2022-12-22T15:35:34.721Z,99910.00
2022-12-22T15:38:01.536Z,99933.78
2022-12-22T15:40:28.972Z,99844.34
2022-12-22T15:42:55.296Z,99912.34
2022-12-22T15:45:22.364Z,99911.13
2022-12-22T15:47:52.327Z,99912.13
2022-12-22T15:50:23.910Z,99910.03
2022-12-22T15:52:53.709Z,99910.22
2022-12-22T15:55:20.679Z,99921.88
2022-12-22T15:57:51.146Z,99927.34
2022-12-22T16:00:18.869Z,99900.63
2022-12-22T16:02:45.511Z,99835.69
2022-12-22T16:05:12.988Z,99864.72
2022-12-22T16:07:40.758Z,99900.50
2022-12-22T16:10:23.714Z,99907.66
2022-12-22T16:12:55.363Z,99894.59
2022-12-22T16:15:22.333Z,99888.34
2022-12-22T16:17:51.571Z,99888.13
2022-12-22T16:20:18.168Z,99866.31
2022-12-22T16:22:44.993Z,99875.47
2022-12-22T16:25:18.670Z,99875.84
2022-12-22T16:27:47.767Z,99866.31
2022-12-22T16:30:19.223Z,99879.13
2022-12-22T16:32:45.975Z,99843.78
2022-12-22T16:35:15.145Z,99872.66
2022-12-22T16:37:42.086Z,99868.31
2022-12-22T16:40:09.226Z,99847.59
2022-12-22T16:45:24.165Z,99839.41
2022-12-22T16:47:53.024Z,99839.34
2022-12-22T16:50:27.483Z,99810.94
2022-12-22T16:52:53.925Z,99811.06
2022-12-22T16:55:21.946Z,99839.81
2022-12-22T16:57:48.677Z,99817.47
2022-12-22T17:00:18.512Z,99797.06
2022-12-22T17:02:50.065Z,99775.00
2022-12-22T17:05:44.923Z,99836.41
2022-12-22T17:08:33.713Z,99797.72
2022-12-22T17:11:09.823Z,99819.91
2022-12-22T17:13:37.691Z,99807.81
2022-12-22T17:16:05.050Z,99735.19
2022-12-22T17:18:33.101Z,99740.19
2022-12-22T17:21:00.602Z,99830.53
2022-12-22T17:23:47.613Z,99823.47
2022-12-22T17:26:17.380Z,99808.88
2022-12-22T17:28:44.532Z,99806.19
2022-12-22T17:31:15.596Z,99737.59
2022-12-22T17:33:42.050Z,99721.94
2022-12-22T17:36:18.669Z,99788.16
2022-12-22T17:38:45.888Z,99789.19
2022-12-22T17:41:15.392Z,99785.44
2022-12-22T17:43:41.712Z,99734.94
2022-12-22T17:46:15.204Z,99777.78
2022-12-22T17:48:42.368Z,99774.28
2022-12-22T17:51:29.315Z,99778.56
2022-12-22T17:53:58.046Z,99757.47
2022-12-22T17:56:26.734Z,99703.97
2022-12-22T17:58:54.140Z,99735.28
2022-12-22T18:01:29.741Z,99760.63
2022-12-22T18:03:56.633Z,99730.97
2022-12-22T18:06:27.397Z,99732.03
2022-12-22T18:08:54.899Z,99759.91
2022-12-22T18:11:22.781Z,99725.28
2022-12-22T18:13:50.229Z,99665.75
2022-12-22T18:16:18.903Z,99726.03
2022-12-22T18:18:45.328Z,99672.31
2022-12-22T18:21:17.469Z,99645.53
2022-12-22T18:23:49.988Z,99664.97
2022-12-22T18:26:21.689Z,99735.28
2022-12-22T18:28:48.798Z,99738.34
2022-12-22T18:31:15.235Z,99713.91
2022-12-22T18:33:41.882Z,99706.16
2022-12-22T18:36:16.588Z,99703.75
2022-12-22T18:38:43.322Z,99737.59
2022-12-22T18:41:19.427Z,99721.50
2022-12-22T18:43:45.885Z,99671.69
2022-12-22T18:46:12.838Z,99716.28
2022-12-22T18:48:39.327Z,99648.53
2022-12-22T18:51:19.697Z,99720.06
2022-12-22T18:53:46.334Z,99718.94
2022-12-22T18:56:13.516Z,99651.22
2022-12-22T18:58:41.363Z,99705.34
2022-12-22T19:01:17.097Z,99723.81
2022-12-22T19:03:45.421Z,99667.53
2022-12-22T19:06:11.853Z,99703.06
2022-12-22T19:08:45.063Z,99675.63
2022-12-22T19:11:12.594Z,99707.94
2022-12-22T19:13:42.663Z,99688.03
2022-12-22T19:16:13.434Z,99704.34
2022-12-22T19:18:39.841Z,99703.38
2022-12-22T19:21:06.356Z,99698.31
2022-12-22T19:23:32.711Z,99656.50
2022-12-22T19:26:08.385Z,99696.81
2022-12-22T19:28:39.064Z,99699.75
2022-12-22T19:31:07.363Z,99663.22
2022-12-22T19:33:43.032Z,99684.97
2022-12-22T19:36:19.633Z,99662.91
2022-12-22T19:38:50.291Z,99684.75
2022-12-22T19:41:38.687Z,99679.97
2022-12-22T19:44:05.692Z,99685.22
2022-12-22T19:46:34.071Z,99681.91
2022-12-22T19:49:01.057Z,99699.56
2022-12-22T19:51:27.437Z,99644.19
2022-12-22T19:53:54.255Z,99614.97
2022-12-22T19:56:29.812Z,99647.59
2022-12-22T19:58:57.653Z,99693.13
2022-12-22T20:01:24.083Z,99635.91
2022-12-22T20:03:57.639Z,99691.22
2022-12-22T20:06:24.063Z,99616.78
2022-12-22T20:08:50.405Z,99690.00
2022-12-22T20:11:19.142Z,99634.31
2022-12-22T20:13:46.709Z,99707.13
2022-12-22T20:16:15.174Z,99694.34
2022-12-22T20:18:42.548Z,99647.84
2022-12-22T20:21:25.550Z,99716.41
2022-12-22T20:23:53.006Z,99673.78
2022-12-22T20:26:22.317Z,99631.88
2022-12-22T20:28:51.721Z,99686.91
2022-12-22T20:31:20.886Z,99679.50
2022-12-22T20:33:47.331Z,99707.97
2022-12-22T20:36:23.596Z,99650.69
2022-12-22T20:38:54.237Z,99711.16
2022-12-22T20:41:21.105Z,99695.44
2022-12-22T20:43:48.166Z,99693.72
2022-12-22T20:46:27.920Z,99694.78
2022-12-22T20:48:57.327Z,99711.69
2022-12-22T20:51:26.130Z,99685.78
2022-12-22T20:53:53.288Z,99709.66
2022-12-22T20:56:30.259Z,99680.63
2022-12-22T20:58:58.196Z,99688.63
2022-12-22T21:01:24.804Z,99690.94
2022-12-22T21:03:51.338Z,99687.63
2022-12-22T21:06:30.813Z,99663.03
2022-12-22T21:08:59.005Z,99707.50
2022-12-22T21:11:26.459Z,99706.88
2022-12-22T21:13:53.878Z,99685.53
2022-12-22T21:16:25.996Z,99702.13
2022-12-22T21:18:53.983Z,99696.03
2022-12-22T21:21:20.813Z,99692.34
2022-12-22T21:23:47.349Z,99701.97
2022-12-22T21:26:22.935Z,99684.38
2022-12-22T21:28:49.939Z,99705.78
2022-12-22T21:31:16.386Z,99625.75
2022-12-22T21:33:43.007Z,99696.06
2022-12-22T21:36:32.388Z,99690.06
2022-12-22T21:39:03.395Z,99691.00
2022-12-22T21:41:48.452Z,99652.94
2022-12-22T21:44:14.821Z,99626.63
2022-12-22T21:46:46.427Z,99697.16
2022-12-22T21:49:21.895Z,99695.78
2022-12-22T21:51:49.751Z,99648.06
2022-12-22T21:54:17.388Z,99682.81
2022-12-22T21:56:43.772Z,99650.59
2022-12-22T21:59:10.196Z,99683.38
2022-12-22T22:01:38.058Z,99684.19
2022-12-22T22:04:04.665Z,99674.34
2022-12-22T22:06:31.165Z,99687.88
2022-12-22T22:08:57.555Z,99670.69
2022-12-22T22:11:25.484Z,99661.47
2022-12-22T22:13:53.014Z,99701.09
2022-12-22T22:16:19.605Z,99678.00
2022-12-22T22:18:47.171Z,99701.22
2022-12-22T22:21:15.561Z,99674.00
2022-12-22T22:23:43.012Z,99649.16
2022-12-22T22:26:10.443Z,99702.25
2022-12-22T22:28:36.885Z,99697.59
2022-12-22T22:31:09.574Z,99680.69
2022-12-22T22:33:36.673Z,99677.81
2022-12-22T22:36:08.229Z,99693.38
2022-12-22T22:38:34.830Z,99699.41
2022-12-22T22:41:01.282Z,99691.03
2022-12-22T22:43:27.610Z,99670.41
2022-12-22T22:45:53.963Z,99630.81
2022-12-22T22:48:22.135Z,99692.69
2022-12-22T22:50:59.233Z,99663.22
2022-12-22T22:53:25.545Z,99679.47
2022-12-22T22:55:51.872Z,99678.13
2022-12-22T22:58:18.211Z,99650.84
2022-12-22T23:00:44.589Z,99649.13
2022-12-22T23:03:11.123Z,99667.75
2022-12-22T23:05:37.614Z,99689.59
2022-12-22T23:08:04.208Z,99630.31
2022-12-22T23:10:32.688Z,99666.88
2022-12-22T23:13:02.532Z,99652.72
2022-12-22T23:15:28.894Z,99628.06
2022-12-22T23:17:55.343Z,99637.34
2022-12-22T23:20:21.754Z,99648.22
2022-12-22T23:22:48.121Z,99591.81
2022-12-22T23:25:14.531Z,99640.66
2022-12-22T23:27:40.950Z,99652.56
2022-12-22T23:30:08.012Z,99674.97
2022-12-22T23:32:34.364Z,99672.56
2022-12-22T23:35:00.706Z,99654.00
2022-12-22T23:37:27.055Z,99682.03
2022-12-22T23:39:53.414Z,99632.34
2022-12-22T23:42:19.728Z,99654.00
2022-12-22T23:44:46.098Z,99690.56
2022-12-22T23:47:12.926Z,99679.50
2022-12-22T23:49:39.433Z,99680.72
2022-12-22T23:52:05.790Z,99612.13
2022-12-22T23:54:32.148Z,99689.38
2022-12-22T23:56:58.471Z,99642.22
2022-12-22T23:59:24.947Z,99605.47
